sensor_id;sensor_type;location;lat;lon;timestamp;temperature;humidity
8422;DHT22;4248;48.196;10.924;2023-03-14T00:02:16;10.60;57.90
8422;DHT22;4248;48.196;10.924;2023-03-14T00:04:42;10.60;57.80
8422;DHT22;4248;48.196;10.924;2023-03-14T00:07:10;10.60;57.70
8422;DHT22;4248;48.196;10.924;2023-03-14T00:09:36;10.50;58.20
8422;DHT22;4248;48.196;10.924;2023-03-14T00:12:02;10.40;58.30
8422;DHT22;4248;48.196;10.924;2023-03-14T00:14:28;10.30;58.90
8422;DHT22;4248;48.196;10.924;2023-03-14T00:16:54;10.20;59.20
8422;DHT22;4248;48.196;10.924;2023-03-14T00:19:20;10.20;59.20
8422;DHT22;4248;48.196;10.924;2023-03-14T00:21:46;10.10;59.20
8422;DHT22;4248;48.196;10.924;2023-03-14T00:24:11;10.20;58.80
8422;DHT22;4248;48.196;10.924;2023-03-14T00:26:37;10.30;58.50
8422;DHT22;4248;48.196;10.924;2023-03-14T00:29:02;10.30;57.90
8422;DHT22;4248;48.196;10.924;2023-03-14T00:31:28;10.40;57.30
8422;DHT22;4248;48.196;10.924;2023-03-14T00:33:54;10.50;56.80
8422;DHT22;4248;48.196;10.924;2023-03-14T00:36:20;10.50;56.50
8422;DHT22;4248;48.196;10.924;2023-03-14T00:38:48;10.60;56.30
8422;DHT22;4248;48.196;10.924;2023-03-14T00:41:20;10.60;56.20
8422;DHT22;4248;48.196;10.924;2023-03-14T00:43:47;10.70;56.20
8422;DHT22;4248;48.196;10.924;2023-03-14T00:46:13;10.60;58.70
8422;DHT22;4248;48.196;10.924;2023-03-14T00:48:39;10.50;59.80
8422;DHT22;4248;48.196;10.924;2023-03-14T00:51:06;10.60;59.90
8422;DHT22;4248;48.196;10.924;2023-03-14T00:53:35;10.60;59.60
8422;DHT22;4248;48.196;10.924;2023-03-14T00:56:06;10.70;59.50
8422;DHT22;4248;48.196;10.924;2023-03-14T00:58:32;10.70;60.00
8422;DHT22;4248;48.196;10.924;2023-03-14T01:00:58;10.80;58.70
8422;DHT22;4248;48.196;10.924;2023-03-14T01:03:24;10.80;58.70
8422;DHT22;4248;48.196;10.924;2023-03-14T01:05:50;10.70;59.50
8422;DHT22;4248;48.196;10.924;2023-03-14T01:08:16;10.70;59.30
8422;DHT22;4248;48.196;10.924;2023-03-14T01:10:42;10.70;59.10
8422;DHT22;4248;48.196;10.924;2023-03-14T01:13:08;10.70;59.50
8422;DHT22;4248;48.196;10.924;2023-03-14T01:15:35;10.50;60.50
8422;DHT22;4248;48.196;10.924;2023-03-14T01:18:01;10.40;61.10
8422;DHT22;4248;48.196;10.924;2023-03-14T01:20:27;10.50;60.70
8422;DHT22;4248;48.196;10.924;2023-03-14T01:22:53;10.50;60.60
8422;DHT22;4248;48.196;10.924;2023-03-14T01:25:18;10.40;60.60
8422;DHT22;4248;48.196;10.924;2023-03-14T01:27:44;10.40;60.60
8422;DHT22;4248;48.196;10.924;2023-03-14T01:30:11;10.40;60.50
8422;DHT22;4248;48.196;10.924;2023-03-14T01:32:38;10.30;60.90
8422;DHT22;4248;48.196;10.924;2023-03-14T01:35:04;10.20;60.90
8422;DHT22;4248;48.196;10.924;2023-03-14T01:37:30;10.30;60.70
8422;DHT22;4248;48.196;10.924;2023-03-14T01:39:55;10.20;60.50
8422;DHT22;4248;48.196;10.924;2023-03-14T01:42:21;10.20;60.50
8422;DHT22;4248;48.196;10.924;2023-03-14T01:47:12;10.20;60.70
8422;DHT22;4248;48.196;10.924;2023-03-14T01:49:38;10.10;60.50
8422;DHT22;4248;48.196;10.924;2023-03-14T01:52:07;10.10;60.60
8422;DHT22;4248;48.196;10.924;2023-03-14T01:55:05;10.00;60.80
8422;DHT22;4248;48.196;10.924;2023-03-14T01:57:35;9.90;62.20
8422;DHT22;4248;48.196;10.924;2023-03-14T02:00:22;9.90;61.90
8422;DHT22;4248;48.196;10.924;2023-03-14T02:02:53;9.90;62.00
8422;DHT22;4248;48.196;10.924;2023-03-14T02:05:23;9.90;61.90
8422;DHT22;4248;48.196;10.924;2023-03-14T02:07:52;9.80;61.70
8422;DHT22;4248;48.196;10.924;2023-03-14T02:10:20;9.90;61.80
8422;DHT22;4248;48.196;10.924;2023-03-14T02:12:48;9.80;62.00
8422;DHT22;4248;48.196;10.924;2023-03-14T02:15:14;9.80;62.90
8422;DHT22;4248;48.196;10.924;2023-03-14T02:17:42;9.70;63.80
8422;DHT22;4248;48.196;10.924;2023-03-14T02:23:00;9.60;65.00
8422;DHT22;4248;48.196;10.924;2023-03-14T02:28:10;9.60;67.30
8422;DHT22;4248;48.196;10.924;2023-03-14T02:30:35;9.60;67.70
8422;DHT22;4248;48.196;10.924;2023-03-14T02:33:05;9.50;67.60
8422;DHT22;4248;48.196;10.924;2023-03-14T02:35:36;9.50;67.60
8422;DHT22;4248;48.196;10.924;2023-03-14T02:40:44;9.70;67.30
8422;DHT22;4248;48.196;10.924;2023-03-14T02:43:10;9.60;67.10
8422;DHT22;4248;48.196;10.924;2023-03-14T02:45:39;9.60;67.00
8422;DHT22;4248;48.196;10.924;2023-03-14T02:48:09;9.50;66.70
8422;DHT22;4248;48.196;10.924;2023-03-14T02:50:36;9.50;66.50
8422;DHT22;4248;48.196;10.924;2023-03-14T02:53:02;9.50;66.40
8422;DHT22;4248;48.196;10.924;2023-03-14T02:55:27;9.50;66.20
8422;DHT22;4248;48.196;10.924;2023-03-14T02:57:53;9.50;66.00
8422;DHT22;4248;48.196;10.924;2023-03-14T03:00:19;9.50;65.70
8422;DHT22;4248;48.196;10.924;2023-03-14T03:02:45;9.60;65.50
8422;DHT22;4248;48.196;10.924;2023-03-14T03:05:10;9.60;65.10
8422;DHT22;4248;48.196;10.924;2023-03-14T03:07:36;9.60;65.10
8422;DHT22;4248;48.196;10.924;2023-03-14T03:10:02;9.50;65.00
8422;DHT22;4248;48.196;10.924;2023-03-14T03:12:28;9.50;65.00
8422;DHT22;4248;48.196;10.924;2023-03-14T03:14:53;9.50;65.00
8422;DHT22;4248;48.196;10.924;2023-03-14T03:17:24;9.50;65.00
8422;DHT22;4248;48.196;10.924;2023-03-14T03:19:50;9.50;65.00
8422;DHT22;4248;48.196;10.924;2023-03-14T03:22:15;9.50;65.00
8422;DHT22;4248;48.196;10.924;2023-03-14T03:24:41;9.40;64.90
8422;DHT22;4248;48.196;10.924;2023-03-14T03:27:06;9.40;64.90
8422;DHT22;4248;48.196;10.924;2023-03-14T03:29:32;9.40;64.90
8422;DHT22;4248;48.196;10.924;2023-03-14T03:31:58;9.30;64.80
8422;DHT22;4248;48.196;10.924;2023-03-14T03:34:23;9.30;64.80
8422;DHT22;4248;48.196;10.924;2023-03-14T03:36:49;9.30;64.80
8422;DHT22;4248;48.196;10.924;2023-03-14T03:39:14;9.20;64.70
8422;DHT22;4248;48.196;10.924;2023-03-14T03:41:40;9.20;64.70
8422;DHT22;4248;48.196;10.924;2023-03-14T03:44:05;9.10;64.60
8422;DHT22;4248;48.196;10.924;2023-03-14T03:46:31;9.10;64.60
8422;DHT22;4248;48.196;10.924;2023-03-14T03:48:58;9.00;64.60
8422;DHT22;4248;48.196;10.924;2023-03-14T03:51:25;9.00;64.60
8422;DHT22;4248;48.196;10.924;2023-03-14T03:53:50;9.00;64.60
8422;DHT22;4248;48.196;10.924;2023-03-14T03:56:16;8.90;64.50
8422;DHT22;4248;48.196;10.924;2023-03-14T03:58:41;8.90;65.70
8422;DHT22;4248;48.196;10.924;2023-03-14T04:01:08;8.90;64.50
8422;DHT22;4248;48.196;10.924;2023-03-14T04:03:34;8.80;64.40
8422;DHT22;4248;48.196;10.924;2023-03-14T04:06:02;8.80;64.40
8422;DHT22;4248;48.196;10.924;2023-03-14T04:08:28;8.80;64.40
8422;DHT22;4248;48.196;10.924;2023-03-14T04:10:56;8.80;64.40
8422;DHT22;4248;48.196;10.924;2023-03-14T04:13:22;8.80;64.40
8422;DHT22;4248;48.196;10.924;2023-03-14T04:15:48;8.80;64.30
8422;DHT22;4248;48.196;10.924;2023-03-14T04:18:13;8.80;64.00
8422;DHT22;4248;48.196;10.924;2023-03-14T04:20:39;8.80;63.80
8422;DHT22;4248;48.196;10.924;2023-03-14T04:23:04;8.80;63.70
8422;DHT22;4248;48.196;10.924;2023-03-14T04:25:30;8.80;63.40
8422;DHT22;4248;48.196;10.924;2023-03-14T04:27:55;8.80;63.30
8422;DHT22;4248;48.196;10.924;2023-03-14T04:30:21;8.80;63.20
8422;DHT22;4248;48.196;10.924;2023-03-14T04:32:47;8.90;63.10
8422;DHT22;4248;48.196;10.924;2023-03-14T04:35:13;8.80;62.90
8422;DHT22;4248;48.196;10.924;2023-03-14T04:37:38;8.80;62.80
8422;DHT22;4248;48.196;10.924;2023-03-14T04:40:04;8.90;62.90
8422;DHT22;4248;48.196;10.924;2023-03-14T04:42:32;8.90;62.90
8422;DHT22;4248;48.196;10.924;2023-03-14T04:44:57;8.90;62.80
8422;DHT22;4248;48.196;10.924;2023-03-14T04:47:23;8.80;62.60
8422;DHT22;4248;48.196;10.924;2023-03-14T04:49:48;8.90;62.50
8422;DHT22;4248;48.196;10.924;2023-03-14T04:52:14;8.90;62.40
8422;DHT22;4248;48.196;10.924;2023-03-14T04:54:39;8.90;62.40
8422;DHT22;4248;48.196;10.924;2023-03-14T04:57:05;8.90;62.30
8422;DHT22;4248;48.196;10.924;2023-03-14T04:59:30;8.90;62.10
8422;DHT22;4248;48.196;10.924;2023-03-14T05:01:56;8.80;61.70
8422;DHT22;4248;48.196;10.924;2023-03-14T05:04:21;8.80;61.70
8422;DHT22;4248;48.196;10.924;2023-03-14T05:06:47;8.80;61.70
8422;DHT22;4248;48.196;10.924;2023-03-14T05:09:13;8.80;61.60
8422;DHT22;4248;48.196;10.924;2023-03-14T05:11:38;8.80;61.60
8422;DHT22;4248;48.196;10.924;2023-03-14T05:14:04;8.80;61.40
8422;DHT22;4248;48.196;10.924;2023-03-14T05:16:29;8.80;61.30
8422;DHT22;4248;48.196;10.924;2023-03-14T05:18:55;8.80;61.20
8422;DHT22;4248;48.196;10.924;2023-03-14T05:21:20;8.80;61.10
8422;DHT22;4248;48.196;10.924;2023-03-14T05:23:46;8.80;61.10
8422;DHT22;4248;48.196;10.924;2023-03-14T05:26:11;8.80;60.90
8422;DHT22;4248;48.196;10.924;2023-03-14T05:28:37;8.80;60.90
8422;DHT22;4248;48.196;10.924;2023-03-14T05:31:06;8.80;60.80
8422;DHT22;4248;48.196;10.924;2023-03-14T05:33:32;8.80;60.80
8422;DHT22;4248;48.196;10.924;2023-03-14T05:35:57;8.80;60.60
8422;DHT22;4248;48.196;10.924;2023-03-14T05:38:23;8.80;60.50
8422;DHT22;4248;48.196;10.924;2023-03-14T05:40:48;8.80;61.60
8422;DHT22;4248;48.196;10.924;2023-03-14T05:43:14;8.80;60.40
8422;DHT22;4248;48.196;10.924;2023-03-14T05:45:41;8.80;60.20
8422;DHT22;4248;48.196;10.924;2023-03-14T05:48:07;8.80;60.10
8422;DHT22;4248;48.196;10.924;2023-03-14T05:50:33;8.80;60.00
8422;DHT22;4248;48.196;10.924;2023-03-14T05:52:58;8.80;60.00
8422;DHT22;4248;48.196;10.924;2023-03-14T05:55:24;8.80;59.90
8422;DHT22;4248;48.196;10.924;2023-03-14T05:57:50;8.80;59.60
8422;DHT22;4248;48.196;10.924;2023-03-14T06:00:16;8.80;59.50
8422;DHT22;4248;48.196;10.924;2023-03-14T06:02:41;8.80;59.30
8422;DHT22;4248;48.196;10.924;2023-03-14T06:05:07;8.80;59.20
8422;DHT22;4248;48.196;10.924;2023-03-14T06:07:33;8.90;59.20
8422;DHT22;4248;48.196;10.924;2023-03-14T06:09:58;8.90;59.10
8422;DHT22;4248;48.196;10.924;2023-03-14T06:12:24;8.90;58.90
8422;DHT22;4248;48.196;10.924;2023-03-14T06:14:50;8.90;60.00
8422;DHT22;4248;48.196;10.924;2023-03-14T06:17:15;8.90;59.00
8422;DHT22;4248;48.196;10.924;2023-03-14T06:19:41;9.00;58.80
8422;DHT22;4248;48.196;10.924;2023-03-14T06:22:07;9.00;58.70
8422;DHT22;4248;48.196;10.924;2023-03-14T06:24:32;9.00;58.70
8422;DHT22;4248;48.196;10.924;2023-03-14T06:26:58;9.00;58.80
8422;DHT22;4248;48.196;10.924;2023-03-14T06:29:23;9.00;58.60
8422;DHT22;4248;48.196;10.924;2023-03-14T06:31:49;9.10;58.30
8422;DHT22;4248;48.196;10.924;2023-03-14T06:34:14;9.20;58.00
8422;DHT22;4248;48.196;10.924;2023-03-14T06:36:40;9.30;57.70
8422;DHT22;4248;48.196;10.924;2023-03-14T06:39:06;9.40;57.30
8422;DHT22;4248;48.196;10.924;2023-03-14T06:41:31;9.40;57.00
8422;DHT22;4248;48.196;10.924;2023-03-14T06:43:58;9.50;56.90
8422;DHT22;4248;48.196;10.924;2023-03-14T06:46:23;9.50;56.80
8422;DHT22;4248;48.196;10.924;2023-03-14T06:48:49;9.50;56.80
8422;DHT22;4248;48.196;10.924;2023-03-14T06:51:15;9.50;56.70
8422;DHT22;4248;48.196;10.924;2023-03-14T06:53:40;9.50;56.80
8422;DHT22;4248;48.196;10.924;2023-03-14T06:56:06;9.50;57.00
8422;DHT22;4248;48.196;10.924;2023-03-14T06:58:32;9.50;56.90
8422;DHT22;4248;48.196;10.924;2023-03-14T07:00:58;9.50;56.80
8422;DHT22;4248;48.196;10.924;2023-03-14T07:03:24;9.50;56.80
8422;DHT22;4248;48.196;10.924;2023-03-14T07:05:50;9.50;56.70
8422;DHT22;4248;48.196;10.924;2023-03-14T07:08:16;9.50;56.60
8422;DHT22;4248;48.196;10.924;2023-03-14T07:10:41;9.50;56.50
8422;DHT22;4248;48.196;10.924;2023-03-14T07:13:07;9.60;56.40
8422;DHT22;4248;48.196;10.924;2023-03-14T07:15:33;9.60;56.20
8422;DHT22;4248;48.196;10.924;2023-03-14T07:17:58;9.60;56.00
8422;DHT22;4248;48.196;10.924;2023-03-14T07:20:24;9.60;56.00
8422;DHT22;4248;48.196;10.924;2023-03-14T07:22:50;9.60;55.70
8422;DHT22;4248;48.196;10.924;2023-03-14T07:25:16;9.70;55.60
8422;DHT22;4248;48.196;10.924;2023-03-14T07:27:45;9.70;55.50
8422;DHT22;4248;48.196;10.924;2023-03-14T07:30:13;9.70;55.30
8422;DHT22;4248;48.196;10.924;2023-03-14T07:32:39;9.80;55.10
8422;DHT22;4248;48.196;10.924;2023-03-14T07:35:05;9.80;54.80
8422;DHT22;4248;48.196;10.924;2023-03-14T07:37:31;9.80;54.70
8422;DHT22;4248;48.196;10.924;2023-03-14T07:39:56;9.90;54.40
8422;DHT22;4248;48.196;10.924;2023-03-14T07:42:22;10.00;53.20
8422;DHT22;4248;48.196;10.924;2023-03-14T07:44:48;10.10;52.70
8422;DHT22;4248;48.196;10.924;2023-03-14T07:47:13;10.20;51.90
8422;DHT22;4248;48.196;10.924;2023-03-14T07:49:39;10.30;51.90
8422;DHT22;4248;48.196;10.924;2023-03-14T07:52:04;10.40;52.00
8422;DHT22;4248;48.196;10.924;2023-03-14T07:54:30;10.40;52.00
8422;DHT22;4248;48.196;10.924;2023-03-14T07:56:55;10.40;52.00
8422;DHT22;4248;48.196;10.924;2023-03-14T07:59:21;10.50;52.10
8422;DHT22;4248;48.196;10.924;2023-03-14T08:01:46;10.60;51.60
8422;DHT22;4248;48.196;10.924;2023-03-14T08:04:12;10.60;51.10
8422;DHT22;4248;48.196;10.924;2023-03-14T08:06:38;10.80;50.80
8422;DHT22;4248;48.196;10.924;2023-03-14T08:09:04;10.80;50.60
8422;DHT22;4248;48.196;10.924;2023-03-14T08:11:30;10.80;50.50
8422;DHT22;4248;48.196;10.924;2023-03-14T08:13:55;10.80;50.30
8422;DHT22;4248;48.196;10.924;2023-03-14T08:16:21;10.80;50.20
8422;DHT22;4248;48.196;10.924;2023-03-14T08:18:46;10.90;50.00
8422;DHT22;4248;48.196;10.924;2023-03-14T08:21:12;11.00;49.80
8422;DHT22;4248;48.196;10.924;2023-03-14T08:23:38;11.00;49.50
8422;DHT22;4248;48.196;10.924;2023-03-14T08:26:04;11.10;49.20
8422;DHT22;4248;48.196;10.924;2023-03-14T08:28:29;11.10;48.80
8422;DHT22;4248;48.196;10.924;2023-03-14T08:30:58;11.20;48.50
8422;DHT22;4248;48.196;10.924;2023-03-14T08:33:25;11.30;48.30
8422;DHT22;4248;48.196;10.924;2023-03-14T08:35:54;11.30;47.80
8422;DHT22;4248;48.196;10.924;2023-03-14T08:38:21;11.50;47.30
8422;DHT22;4248;48.196;10.924;2023-03-14T08:40:47;11.60;46.80
8422;DHT22;4248;48.196;10.924;2023-03-14T08:43:12;11.80;46.20
8422;DHT22;4248;48.196;10.924;2023-03-14T08:45:38;11.90;45.70
8422;DHT22;4248;48.196;10.924;2023-03-14T08:48:04;12.10;45.30
8422;DHT22;4248;48.196;10.924;2023-03-14T08:50:30;12.20;44.90
8422;DHT22;4248;48.196;10.924;2023-03-14T08:52:55;12.40;44.70
8422;DHT22;4248;48.196;10.924;2023-03-14T08:55:25;12.50;44.40
8422;DHT22;4248;48.196;10.924;2023-03-14T08:57:52;12.60;43.80
8422;DHT22;4248;48.196;10.924;2023-03-14T09:00:18;12.60;43.50
8422;DHT22;4248;48.196;10.924;2023-03-14T09:02:44;12.60;43.10
8422;DHT22;4248;48.196;10.924;2023-03-14T09:05:10;12.70;42.90
8422;DHT22;4248;48.196;10.924;2023-03-14T09:07:36;12.80;42.60
8422;DHT22;4248;48.196;10.924;2023-03-14T09:10:02;12.90;42.30
8422;DHT22;4248;48.196;10.924;2023-03-14T09:12:28;12.90;41.10
8422;DHT22;4248;48.196;10.924;2023-03-14T09:14:53;13.00;41.10
8422;DHT22;4248;48.196;10.924;2023-03-14T09:17:19;13.20;41.40
8422;DHT22;4248;48.196;10.924;2023-03-14T09:19:44;13.20;41.30
8422;DHT22;4248;48.196;10.924;2023-03-14T09:22:10;13.30;40.90
8422;DHT22;4248;48.196;10.924;2023-03-14T09:24:35;13.40;40.40
8422;DHT22;4248;48.196;10.924;2023-03-14T09:27:01;13.40;40.40
8422;DHT22;4248;48.196;10.924;2023-03-14T09:29:27;13.40;40.30
8422;DHT22;4248;48.196;10.924;2023-03-14T09:31:53;13.50;39.80
8422;DHT22;4248;48.196;10.924;2023-03-14T09:34:18;13.60;39.60
8422;DHT22;4248;48.196;10.924;2023-03-14T09:36:44;13.70;39.40
8422;DHT22;4248;48.196;10.924;2023-03-14T09:39:11;13.80;39.00
8422;DHT22;4248;48.196;10.924;2023-03-14T09:41:41;13.90;38.90
8422;DHT22;4248;48.196;10.924;2023-03-14T09:44:14;13.90;37.00
8422;DHT22;4248;48.196;10.924;2023-03-14T09:46:44;13.70;37.90
8422;DHT22;4248;48.196;10.924;2023-03-14T09:49:25;13.70;37.80
8422;DHT22;4248;48.196;10.924;2023-03-14T09:51:55;13.90;37.50
8422;DHT22;4248;48.196;10.924;2023-03-14T09:54:44;14.00;37.20
8422;DHT22;4248;48.196;10.924;2023-03-14T09:57:15;13.90;35.90
8422;DHT22;4248;48.196;10.924;2023-03-14T09:59:46;14.10;36.20
8422;DHT22;4248;48.196;10.924;2023-03-14T10:04:48;14.20;35.10
8422;DHT22;4248;48.196;10.924;2023-03-14T10:07:17;14.20;34.80
8422;DHT22;4248;48.196;10.924;2023-03-14T10:09:46;13.90;32.80
8422;DHT22;4248;48.196;10.924;2023-03-14T10:12:12;13.90;32.80
8422;DHT22;4248;48.196;10.924;2023-03-14T10:14:51;14.10;33.20
8422;DHT22;4248;48.196;10.924;2023-03-14T10:17:18;14.50;33.00
8422;DHT22;4248;48.196;10.924;2023-03-14T10:19:55;14.40;30.80
8422;DHT22;4248;48.196;10.924;2023-03-14T10:22:24;14.30;31.90
8422;DHT22;4248;48.196;10.924;2023-03-14T10:24:53;14.60;32.00
8422;DHT22;4248;48.196;10.924;2023-03-14T10:27:33;14.80;31.70
8422;DHT22;4248;48.196;10.924;2023-03-14T10:30:05;14.90;30.70
8422;DHT22;4248;48.196;10.924;2023-03-14T10:32:45;14.90;31.40
8422;DHT22;4248;48.196;10.924;2023-03-14T10:40:18;15.00;30.50
8422;DHT22;4248;48.196;10.924;2023-03-14T10:42:44;15.10;30.20
8422;DHT22;4248;48.196;10.924;2023-03-14T10:48:05;15.20;29.80
8422;DHT22;4248;48.196;10.924;2023-03-14T10:50:32;15.00;29.60
8422;DHT22;4248;48.196;10.924;2023-03-14T10:53:02;15.10;29.70
8422;DHT22;4248;48.196;10.924;2023-03-14T10:55:43;14.70;28.90
8422;DHT22;4248;48.196;10.924;2023-03-14T10:58:27;14.90;29.10
8422;DHT22;4248;48.196;10.924;2023-03-14T11:03:32;15.20;29.40
8422;DHT22;4248;48.196;10.924;2023-03-14T11:06:12;15.30;28.50
8422;DHT22;4248;48.196;10.924;2023-03-14T11:08:53;15.50;28.30
8422;DHT22;4248;48.196;10.924;2023-03-14T11:11:27;15.30;27.80
8422;DHT22;4248;48.196;10.924;2023-03-14T11:16:54;15.20;28.10
8422;DHT22;4248;48.196;10.924;2023-03-14T11:27:34;15.40;27.00
8422;DHT22;4248;48.196;10.924;2023-03-14T11:35:34;15.30;26.90
8422;DHT22;4248;48.196;10.924;2023-03-14T11:38:10;15.10;26.50
8422;DHT22;4248;48.196;10.924;2023-03-14T11:40:38;14.90;26.90
8422;DHT22;4248;48.196;10.924;2023-03-14T11:45:56;15.20;26.80
8422;DHT22;4248;48.196;10.924;2023-03-14T11:48:39;15.20;27.00
8422;DHT22;4248;48.196;10.924;2023-03-14T11:51:12;14.90;27.10
8422;DHT22;4248;48.196;10.924;2023-03-14T11:56:13;14.60;27.70
8422;DHT22;4248;48.196;10.924;2023-03-14T11:58:50;14.70;27.70
8422;DHT22;4248;48.196;10.924;2023-03-14T12:01:17;14.90;27.70
8422;DHT22;4248;48.196;10.924;2023-03-14T12:04:04;15.20;27.80
8422;DHT22;4248;48.196;10.924;2023-03-14T12:09:08;15.00;26.80
8422;DHT22;4248;48.196;10.924;2023-03-14T12:11:52;15.10;27.50
8422;DHT22;4248;48.196;10.924;2023-03-14T12:14:25;15.10;27.10
8422;DHT22;4248;48.196;10.924;2023-03-14T12:16:58;14.80;27.50
8422;DHT22;4248;48.196;10.924;2023-03-14T12:21:52;14.80;27.40
8422;DHT22;4248;48.196;10.924;2023-03-14T12:24:23;14.70;27.40
8422;DHT22;4248;48.196;10.924;2023-03-14T12:26:56;14.90;27.50
8422;DHT22;4248;48.196;10.924;2023-03-14T12:29:22;14.90;27.40
8422;DHT22;4248;48.196;10.924;2023-03-14T12:37:04;14.70;27.80
8422;DHT22;4248;48.196;10.924;2023-03-14T12:39:37;14.60;27.70
8422;DHT22;4248;48.196;10.924;2023-03-14T12:42:43;14.50;27.90
8422;DHT22;4248;48.196;10.924;2023-03-14T12:45:29;14.20;28.20
8422;DHT22;4248;48.196;10.924;2023-03-14T12:48:22;13.70;28.70
8422;DHT22;4248;48.196;10.924;2023-03-14T12:51:00;13.40;29.10
8422;DHT22;4248;48.196;10.924;2023-03-14T12:53:55;13.30;29.60
8422;DHT22;4248;48.196;10.924;2023-03-14T12:59:35;13.00;31.20
8422;DHT22;4248;48.196;10.924;2023-03-14T13:04:43;13.50;30.50
8422;DHT22;4248;48.196;10.924;2023-03-14T13:07:30;13.60;30.00
8422;DHT22;4248;48.196;10.924;2023-03-14T13:12:42;13.50;30.00
8422;DHT22;4248;48.196;10.924;2023-03-14T13:15:32;13.30;30.20
8422;DHT22;4248;48.196;10.924;2023-03-14T13:18:17;13.10;30.20
8422;DHT22;4248;48.196;10.924;2023-03-14T13:20:52;12.90;31.80
8422;DHT22;4248;48.196;10.924;2023-03-14T13:23:22;12.70;30.90
8422;DHT22;4248;48.196;10.924;2023-03-14T13:25:48;12.50;31.60
8422;DHT22;4248;48.196;10.924;2023-03-14T13:28:14;12.20;32.00
8422;DHT22;4248;48.196;10.924;2023-03-14T13:30:43;12.10;32.30
8422;DHT22;4248;48.196;10.924;2023-03-14T13:33:20;11.90;33.00
8422;DHT22;4248;48.196;10.924;2023-03-14T13:36:00;11.80;33.40
8422;DHT22;4248;48.196;10.924;2023-03-14T13:38:30;11.70;33.80
8422;DHT22;4248;48.196;10.924;2023-03-14T13:40:57;11.50;34.30
8422;DHT22;4248;48.196;10.924;2023-03-14T13:43:35;11.30;35.10
8422;DHT22;4248;48.196;10.924;2023-03-14T13:46:21;11.10;35.90
8422;DHT22;4248;48.196;10.924;2023-03-14T13:48:54;10.90;37.10
8422;DHT22;4248;48.196;10.924;2023-03-14T13:51:21;10.60;37.90
8422;DHT22;4248;48.196;10.924;2023-03-14T13:53:49;10.40;38.80
8422;DHT22;4248;48.196;10.924;2023-03-14T13:56:16;10.30;38.70
8422;DHT22;4248;48.196;10.924;2023-03-14T13:58:42;10.20;38.60
8422;DHT22;4248;48.196;10.924;2023-03-14T14:01:31;10.10;39.10
8422;DHT22;4248;48.196;10.924;2023-03-14T14:04:02;10.00;39.70
8422;DHT22;4248;48.196;10.924;2023-03-14T14:06:34;10.00;39.70
8422;DHT22;4248;48.196;10.924;2023-03-14T14:09:16;10.00;39.60
8422;DHT22;4248;48.196;10.924;2023-03-14T14:14:28;9.80;42.70
8422;DHT22;4248;48.196;10.924;2023-03-14T14:16:57;9.70;41.60
8422;DHT22;4248;48.196;10.924;2023-03-14T14:19:25;9.70;41.70
8422;DHT22;4248;48.196;10.924;2023-03-14T14:21:53;9.80;42.10
8422;DHT22;4248;48.196;10.924;2023-03-14T14:24:21;9.90;42.20
8422;DHT22;4248;48.196;10.924;2023-03-14T14:26:53;9.90;42.10
8422;DHT22;4248;48.196;10.924;2023-03-14T14:29:30;10.10;41.10
8422;DHT22;4248;48.196;10.924;2023-03-14T14:32:22;10.10;40.90
8422;DHT22;4248;48.196;10.924;2023-03-14T14:34:57;10.20;40.80
8422;DHT22;4248;48.196;10.924;2023-03-14T14:39:52;10.40;40.80
8422;DHT22;4248;48.196;10.924;2023-03-14T14:42:20;10.20;41.10
8422;DHT22;4248;48.196;10.924;2023-03-14T14:44:50;10.10;41.30
8422;DHT22;4248;48.196;10.924;2023-03-14T14:47:22;10.00;42.00
8422;DHT22;4248;48.196;10.924;2023-03-14T14:49:49;9.80;43.80
8422;DHT22;4248;48.196;10.924;2023-03-14T14:52:31;9.60;44.30
8422;DHT22;4248;48.196;10.924;2023-03-14T14:55:00;9.20;49.20
8422;DHT22;4248;48.196;10.924;2023-03-14T14:57:33;8.40;55.50
8422;DHT22;4248;48.196;10.924;2023-03-14T15:00:07;8.20;57.70
8422;DHT22;4248;48.196;10.924;2023-03-14T15:02:41;8.10;58.00
8422;DHT22;4248;48.196;10.924;2023-03-14T15:05:22;8.10;58.50
8422;DHT22;4248;48.196;10.924;2023-03-14T15:07:48;8.20;57.40
8422;DHT22;4248;48.196;10.924;2023-03-14T15:10:20;8.50;56.70
8422;DHT22;4248;48.196;10.924;2023-03-14T15:12:46;8.40;57.40
8422;DHT22;4248;48.196;10.924;2023-03-14T15:15:13;8.40;56.00
8422;DHT22;4248;48.196;10.924;2023-03-14T15:17:39;8.40;56.50
8422;DHT22;4248;48.196;10.924;2023-03-14T15:20:06;8.50;55.80
8422;DHT22;4248;48.196;10.924;2023-03-14T15:22:32;8.40;55.50
8422;DHT22;4248;48.196;10.924;2023-03-14T15:24:58;8.40;55.00
8422;DHT22;4248;48.196;10.924;2023-03-14T15:27:23;8.50;54.30
8422;DHT22;4248;48.196;10.924;2023-03-14T15:29:49;8.40;52.70
8422;DHT22;4248;48.196;10.924;2023-03-14T15:32:16;8.40;52.70
8422;DHT22;4248;48.196;10.924;2023-03-14T15:34:43;8.30;51.10
8422;DHT22;4248;48.196;10.924;2023-03-14T15:37:11;8.20;51.10
8422;DHT22;4248;48.196;10.924;2023-03-14T15:39:38;8.20;51.10
8422;DHT22;4248;48.196;10.924;2023-03-14T15:42:03;8.00;50.90
8422;DHT22;4248;48.196;10.924;2023-03-14T15:44:29;8.10;49.30
8422;DHT22;4248;48.196;10.924;2023-03-14T15:46:54;8.10;48.30
8422;DHT22;4248;48.196;10.924;2023-03-14T15:49:20;7.90;44.60
8422;DHT22;4248;48.196;10.924;2023-03-14T15:51:45;8.00;44.50
8422;DHT22;4248;48.196;10.924;2023-03-14T15:54:11;8.00;40.20
8422;DHT22;4248;48.196;10.924;2023-03-14T15:56:36;8.10;38.60
8422;DHT22;4248;48.196;10.924;2023-03-14T15:59:02;8.10;39.00
8422;DHT22;4248;48.196;10.924;2023-03-14T16:01:28;8.10;37.80
8422;DHT22;4248;48.196;10.924;2023-03-14T16:03:53;8.00;35.90
8422;DHT22;4248;48.196;10.924;2023-03-14T16:06:19;7.80;35.10
8422;DHT22;4248;48.196;10.924;2023-03-14T16:08:45;7.80;35.90
8422;DHT22;4248;48.196;10.924;2023-03-14T16:11:12;7.80;36.30
8422;DHT22;4248;48.196;10.924;2023-03-14T16:13:40;7.70;37.40
8422;DHT22;4248;48.196;10.924;2023-03-14T16:16:06;7.60;37.30
8422;DHT22;4248;48.196;10.924;2023-03-14T16:18:34;7.60;37.30
8422;DHT22;4248;48.196;10.924;2023-03-14T16:21:10;7.60;37.30
8422;DHT22;4248;48.196;10.924;2023-03-14T16:23:37;7.50;38.00
8422;DHT22;4248;48.196;10.924;2023-03-14T16:26:04;7.40;38.30
8422;DHT22;4248;48.196;10.924;2023-03-14T16:28:30;7.40;39.00
8422;DHT22;4248;48.196;10.924;2023-03-14T16:31:03;7.40;38.90
8422;DHT22;4248;48.196;10.924;2023-03-14T16:33:29;7.40;39.10
8422;DHT22;4248;48.196;10.924;2023-03-14T16:35:56;7.40;38.90
8422;DHT22;4248;48.196;10.924;2023-03-14T16:38:23;7.40;38.30
8422;DHT22;4248;48.196;10.924;2023-03-14T16:41:00;7.40;38.60
8422;DHT22;4248;48.196;10.924;2023-03-14T16:43:27;7.40;38.30
8422;DHT22;4248;48.196;10.924;2023-03-14T16:45:53;7.50;38.30
8422;DHT22;4248;48.196;10.924;2023-03-14T16:48:19;7.40;39.20
8422;DHT22;4248;48.196;10.924;2023-03-14T16:50:45;7.30;38.50
8422;DHT22;4248;48.196;10.924;2023-03-14T16:53:10;7.10;38.30
8422;DHT22;4248;48.196;10.924;2023-03-14T16:55:40;7.00;38.30
8422;DHT22;4248;48.196;10.924;2023-03-14T16:58:07;6.90;38.70
8422;DHT22;4248;48.196;10.924;2023-03-14T17:00:32;6.80;38.40
8422;DHT22;4248;48.196;10.924;2023-03-14T17:02:58;6.70;38.10
8422;DHT22;4248;48.196;10.924;2023-03-14T17:05:24;6.70;38.20
8422;DHT22;4248;48.196;10.924;2023-03-14T17:07:49;6.60;37.70
8422;DHT22;4248;48.196;10.924;2023-03-14T17:10:15;6.50;38.00
8422;DHT22;4248;48.196;10.924;2023-03-14T17:12:42;6.40;37.90